sensor_id;sensor_type;location;lat;lon;timestamp;temperature;humidity
43987;DHT22;29650;47.378;8.300;2022-07-22T00:01:10;20.90;91.00
43987;DHT22;29650;47.378;8.300;2022-07-22T00:03:37;21.00;91.10
43987;DHT22;29650;47.378;8.300;2022-07-22T00:06:04;21.00;90.90
43987;DHT22;29650;47.378;8.300;2022-07-22T00:08:33;20.80;91.20
43987;DHT22;29650;47.378;8.300;2022-07-22T00:11:00;20.80;92.60
43987;DHT22;29650;47.378;8.300;2022-07-22T00:13:27;20.60;93.10
43987;DHT22;29650;47.378;8.300;2022-07-22T00:15:54;20.60;93.20
43987;DHT22;29650;47.378;8.300;2022-07-22T00:18:21;20.60;92.90
43987;DHT22;29650;47.378;8.300;2022-07-22T00:20:48;20.70;92.50
43987;DHT22;29650;47.378;8.300;2022-07-22T00:23:15;20.60;92.90
43987;DHT22;29650;47.378;8.300;2022-07-22T00:25:43;20.70;92.80
43987;DHT22;29650;47.378;8.300;2022-07-22T00:28:10;20.60;92.70
43987;DHT22;29650;47.378;8.300;2022-07-22T00:30:37;20.60;93.00
43987;DHT22;29650;47.378;8.300;2022-07-22T00:33:04;20.40;93.10
43987;DHT22;29650;47.378;8.300;2022-07-22T00:35:31;20.50;93.20
43987;DHT22;29650;47.378;8.300;2022-07-22T00:37:58;20.50;93.20
43987;DHT22;29650;47.378;8.300;2022-07-22T00:40:25;20.50;93.30
43987;DHT22;29650;47.378;8.300;2022-07-22T00:42:53;20.40;93.00
43987;DHT22;29650;47.378;8.300;2022-07-22T00:45:20;20.50;93.00
43987;DHT22;29650;47.378;8.300;2022-07-22T00:47:47;20.50;93.10
43987;DHT22;29650;47.378;8.300;2022-07-22T00:50:14;20.50;92.80
43987;DHT22;29650;47.378;8.300;2022-07-22T00:52:43;20.40;92.90
43987;DHT22;29650;47.378;8.300;2022-07-22T00:55:10;20.10;92.90
43987;DHT22;29650;47.378;8.300;2022-07-22T00:57:37;20.20;93.30
43987;DHT22;29650;47.378;8.300;2022-07-22T01:00:09;20.30;93.30
43987;DHT22;29650;47.378;8.300;2022-07-22T01:02:37;20.20;93.80
43987;DHT22;29650;47.378;8.300;2022-07-22T01:05:05;19.90;94.80
43987;DHT22;29650;47.378;8.300;2022-07-22T01:07:32;20.10;95.10
43987;DHT22;29650;47.378;8.300;2022-07-22T01:09:59;20.00;96.00
43987;DHT22;29650;47.378;8.300;2022-07-22T01:12:26;20.00;96.50
43987;DHT22;29650;47.378;8.300;2022-07-22T01:14:53;19.70;98.10
43987;DHT22;29650;47.378;8.300;2022-07-22T01:17:21;19.90;99.20
43987;DHT22;29650;47.378;8.300;2022-07-22T01:19:48;20.00;99.90
43987;DHT22;29650;47.378;8.300;2022-07-22T01:22:17;19.80;99.90
43987;DHT22;29650;47.378;8.300;2022-07-22T01:24:44;19.50;99.90
43987;DHT22;29650;47.378;8.300;2022-07-22T01:27:11;19.50;99.90
43987;DHT22;29650;47.378;8.300;2022-07-22T01:29:38;19.60;99.90
43987;DHT22;29650;47.378;8.300;2022-07-22T01:32:05;19.70;99.90
43987;DHT22;29650;47.378;8.300;2022-07-22T01:34:32;19.70;99.90
43987;DHT22;29650;47.378;8.300;2022-07-22T01:36:59;19.70;99.90
43987;DHT22;29650;47.378;8.300;2022-07-22T01:39:27;19.70;99.90
43987;DHT22;29650;47.378;8.300;2022-07-22T01:41:54;19.60;99.90
43987;DHT22;29650;47.378;8.300;2022-07-22T01:44:21;19.70;99.90
43987;DHT22;29650;47.378;8.300;2022-07-22T01:46:48;19.80;99.90
43987;DHT22;29650;47.378;8.300;2022-07-22T01:49:15;20.00;99.90
43987;DHT22;29650;47.378;8.300;2022-07-22T01:51:43;20.00;99.20
43987;DHT22;29650;47.378;8.300;2022-07-22T01:54:09;20.10;98.80
43987;DHT22;29650;47.378;8.300;2022-07-22T01:56:38;20.00;99.40
43987;DHT22;29650;47.378;8.300;2022-07-22T01:59:05;19.70;99.90
43987;DHT22;29650;47.378;8.300;2022-07-22T02:01:32;19.60;99.90
43987;DHT22;29650;47.378;8.300;2022-07-22T02:03:59;19.60;99.90
43987;DHT22;29650;47.378;8.300;2022-07-22T02:06:26;19.70;99.90
43987;DHT22;29650;47.378;8.300;2022-07-22T02:08:53;19.60;99.90
43987;DHT22;29650;47.378;8.300;2022-07-22T02:11:20;19.40;99.90
43987;DHT22;29650;47.378;8.300;2022-07-22T02:13:48;19.50;99.90
43987;DHT22;29650;47.378;8.300;2022-07-22T02:16:15;19.50;99.90
43987;DHT22;29650;47.378;8.300;2022-07-22T02:18:42;19.40;99.90
43987;DHT22;29650;47.378;8.300;2022-07-22T02:21:09;19.30;99.90
43987;DHT22;29650;47.378;8.300;2022-07-22T02:23:36;19.30;99.90
43987;DHT22;29650;47.378;8.300;2022-07-22T02:26:03;19.40;99.90
43987;DHT22;29650;47.378;8.300;2022-07-22T02:28:30;19.40;99.90
43987;DHT22;29650;47.378;8.300;2022-07-22T02:30:58;19.30;99.90
43987;DHT22;29650;47.378;8.300;2022-07-22T02:33:25;19.20;99.90
43987;DHT22;29650;47.378;8.300;2022-07-22T02:35:52;19.30;99.90
43987;DHT22;29650;47.378;8.300;2022-07-22T02:38:19;19.20;99.90
43987;DHT22;29650;47.378;8.300;2022-07-22T02:40:46;19.20;99.90
43987;DHT22;29650;47.378;8.300;2022-07-22T02:43:13;19.20;99.90
43987;DHT22;29650;47.378;8.300;2022-07-22T02:45:40;19.10;99.90
43987;DHT22;29650;47.378;8.300;2022-07-22T02:48:08;19.10;99.90
43987;DHT22;29650;47.378;8.300;2022-07-22T02:50:35;19.20;99.90
43987;DHT22;29650;47.378;8.300;2022-07-22T02:53:03;19.20;99.90
43987;DHT22;29650;47.378;8.300;2022-07-22T02:55:30;19.10;99.90
43987;DHT22;29650;47.378;8.300;2022-07-22T02:57:58;18.90;99.90
43987;DHT22;29650;47.378;8.300;2022-07-22T03:00:30;18.90;99.90
43987;DHT22;29650;47.378;8.300;2022-07-22T03:02:57;18.90;99.90
43987;DHT22;29650;47.378;8.300;2022-07-22T03:05:25;18.90;99.90
43987;DHT22;29650;47.378;8.300;2022-07-22T03:07:52;18.90;99.90
43987;DHT22;29650;47.378;8.300;2022-07-22T03:10:19;18.80;99.90
43987;DHT22;29650;47.378;8.300;2022-07-22T03:12:46;18.80;99.90
43987;DHT22;29650;47.378;8.300;2022-07-22T03:15:13;18.90;99.90
43987;DHT22;29650;47.378;8.300;2022-07-22T03:17:40;19.00;99.90
43987;DHT22;29650;47.378;8.300;2022-07-22T03:20:09;18.90;99.90
43987;DHT22;29650;47.378;8.300;2022-07-22T03:22:37;18.80;99.90
43987;DHT22;29650;47.378;8.300;2022-07-22T03:25:05;18.80;99.90
43987;DHT22;29650;47.378;8.300;2022-07-22T03:27:32;18.70;99.90
43987;DHT22;29650;47.378;8.300;2022-07-22T03:29:59;18.70;99.90
43987;DHT22;29650;47.378;8.300;2022-07-22T03:32:25;18.60;99.90
43987;DHT22;29650;47.378;8.300;2022-07-22T03:34:52;18.50;99.90
43987;DHT22;29650;47.378;8.300;2022-07-22T03:37:19;18.70;99.90
43987;DHT22;29650;47.378;8.300;2022-07-22T03:39:47;18.60;99.90
43987;DHT22;29650;47.378;8.300;2022-07-22T03:42:14;18.60;99.90
43987;DHT22;29650;47.378;8.300;2022-07-22T03:44:41;18.50;99.90
43987;DHT22;29650;47.378;8.300;2022-07-22T03:47:08;18.50;99.90
43987;DHT22;29650;47.378;8.300;2022-07-22T03:49:35;18.40;99.90
43987;DHT22;29650;47.378;8.300;2022-07-22T03:52:02;18.40;99.90
43987;DHT22;29650;47.378;8.300;2022-07-22T03:54:29;18.30;99.90
43987;DHT22;29650;47.378;8.300;2022-07-22T03:56:57;18.20;99.90
43987;DHT22;29650;47.378;8.300;2022-07-22T03:59:24;18.40;99.90
43987;DHT22;29650;47.378;8.300;2022-07-22T04:01:51;18.40;99.90
43987;DHT22;29650;47.378;8.300;2022-07-22T04:04:18;18.50;99.90
43987;DHT22;29650;47.378;8.300;2022-07-22T04:06:45;18.60;99.90
43987;DHT22;29650;47.378;8.300;2022-07-22T04:09:12;18.50;99.90
43987;DHT22;29650;47.378;8.300;2022-07-22T04:11:39;18.40;99.90
43987;DHT22;29650;47.378;8.300;2022-07-22T04:14:07;18.30;99.90
43987;DHT22;29650;47.378;8.300;2022-07-22T04:16:34;18.20;99.90
43987;DHT22;29650;47.378;8.300;2022-07-22T04:19:01;18.20;99.90
43987;DHT22;29650;47.378;8.300;2022-07-22T04:21:28;18.30;99.90
43987;DHT22;29650;47.378;8.300;2022-07-22T04:23:55;18.30;99.90
43987;DHT22;29650;47.378;8.300;2022-07-22T04:26:22;18.40;99.90
43987;DHT22;29650;47.378;8.300;2022-07-22T04:28:49;18.30;99.90
43987;DHT22;29650;47.378;8.300;2022-07-22T04:31:18;18.50;99.90
43987;DHT22;29650;47.378;8.300;2022-07-22T04:33:45;18.40;99.90
43987;DHT22;29650;47.378;8.300;2022-07-22T04:36:11;18.40;99.90
43987;DHT22;29650;47.378;8.300;2022-07-22T04:38:38;18.50;99.90
43987;DHT22;29650;47.378;8.300;2022-07-22T04:41:05;18.50;99.90
43987;DHT22;29650;47.378;8.300;2022-07-22T04:43:32;18.60;99.90
43987;DHT22;29650;47.378;8.300;2022-07-22T04:45:59;18.80;99.90
43987;DHT22;29650;47.378;8.300;2022-07-22T04:48:28;18.80;99.90
43987;DHT22;29650;47.378;8.300;2022-07-22T04:50:58;18.90;99.90
43987;DHT22;29650;47.378;8.300;2022-07-22T04:53:26;19.00;99.90
43987;DHT22;29650;47.378;8.300;2022-07-22T04:55:53;18.90;99.90
43987;DHT22;29650;47.378;8.300;2022-07-22T04:58:20;18.90;99.90
43987;DHT22;29650;47.378;8.300;2022-07-22T05:00:47;19.00;99.90
43987;DHT22;29650;47.378;8.300;2022-07-22T05:03:14;18.90;99.90
43987;DHT22;29650;47.378;8.300;2022-07-22T05:05:42;18.80;99.90
43987;DHT22;29650;47.378;8.300;2022-07-22T05:08:09;19.00;99.90
43987;DHT22;29650;47.378;8.300;2022-07-22T05:10:36;19.00;99.90
43987;DHT22;29650;47.378;8.300;2022-07-22T05:13:03;19.10;99.90
43987;DHT22;29650;47.378;8.300;2022-07-22T05:15:30;19.10;99.90
43987;DHT22;29650;47.378;8.300;2022-07-22T05:17:57;19.30;99.90
43987;DHT22;29650;47.378;8.300;2022-07-22T05:20:24;19.50;99.90
43987;DHT22;29650;47.378;8.300;2022-07-22T05:22:52;19.60;99.90
43987;DHT22;29650;47.378;8.300;2022-07-22T05:25:19;19.70;99.90
43987;DHT22;29650;47.378;8.300;2022-07-22T05:27:50;19.80;99.90
43987;DHT22;29650;47.378;8.300;2022-07-22T05:30:17;19.90;99.90
43987;DHT22;29650;47.378;8.300;2022-07-22T05:32:44;20.00;99.90
43987;DHT22;29650;47.378;8.300;2022-07-22T05:35:11;20.00;99.90
43987;DHT22;29650;47.378;8.300;2022-07-22T05:37:38;20.20;99.90
43987;DHT22;29650;47.378;8.300;2022-07-22T05:40:08;20.20;99.90
43987;DHT22;29650;47.378;8.300;2022-07-22T05:42:35;20.50;99.90
43987;DHT22;29650;47.378;8.300;2022-07-22T05:45:02;20.60;99.90
43987;DHT22;29650;47.378;8.300;2022-07-22T05:47:29;20.80;99.90
43987;DHT22;29650;47.378;8.300;2022-07-22T05:49:56;20.60;99.90
43987;DHT22;29650;47.378;8.300;2022-07-22T05:52:23;20.60;99.90
43987;DHT22;29650;47.378;8.300;2022-07-22T05:54:50;20.70;99.90
43987;DHT22;29650;47.378;8.300;2022-07-22T05:57:18;20.90;99.90
43987;DHT22;29650;47.378;8.300;2022-07-22T05:59:45;20.80;99.90
43987;DHT22;29650;47.378;8.300;2022-07-22T06:02:12;20.90;99.90
43987;DHT22;29650;47.378;8.300;2022-07-22T06:04:39;21.10;99.90
43987;DHT22;29650;47.378;8.300;2022-07-22T06:07:06;21.20;99.90
43987;DHT22;29650;47.378;8.300;2022-07-22T06:09:33;21.00;99.90
43987;DHT22;29650;47.378;8.300;2022-07-22T06:12:00;20.90;99.90
43987;DHT22;29650;47.378;8.300;2022-07-22T06:14:28;21.00;99.90
43987;DHT22;29650;47.378;8.300;2022-07-22T06:16:55;21.20;99.90
43987;DHT22;29650;47.378;8.300;2022-07-22T06:19:22;21.50;99.90
43987;DHT22;29650;47.378;8.300;2022-07-22T06:21:50;21.80;99.90
43987;DHT22;29650;47.378;8.300;2022-07-22T06:24:17;21.50;99.90
43987;DHT22;29650;47.378;8.300;2022-07-22T06:26:44;21.50;99.90
43987;DHT22;29650;47.378;8.300;2022-07-22T06:29:11;21.60;99.90
43987;DHT22;29650;47.378;8.300;2022-07-22T06:31:39;22.00;99.90
43987;DHT22;29650;47.378;8.300;2022-07-22T06:34:06;22.30;99.30
43987;DHT22;29650;47.378;8.300;2022-07-22T06:36:33;22.30;99.00
43987;DHT22;29650;47.378;8.300;2022-07-22T06:39:01;22.30;98.60
43987;DHT22;29650;47.378;8.300;2022-07-22T06:41:28;22.30;98.60
43987;DHT22;29650;47.378;8.300;2022-07-22T06:43:55;22.30;98.80
43987;DHT22;29650;47.378;8.300;2022-07-22T06:46:21;22.70;97.40
43987;DHT22;29650;47.378;8.300;2022-07-22T06:48:50;22.90;96.60
43987;DHT22;29650;47.378;8.300;2022-07-22T06:51:17;23.00;96.00
43987;DHT22;29650;47.378;8.300;2022-07-22T06:53:43;23.10;95.30
43987;DHT22;29650;47.378;8.300;2022-07-22T06:56:10;23.20;94.80
43987;DHT22;29650;47.378;8.300;2022-07-22T06:58:37;23.30;94.50
43987;DHT22;29650;47.378;8.300;2022-07-22T07:01:04;23.30;94.30
43987;DHT22;29650;47.378;8.300;2022-07-22T07:03:31;23.40;93.80
43987;DHT22;29650;47.378;8.300;2022-07-22T07:05:59;23.40;94.00
43987;DHT22;29650;47.378;8.300;2022-07-22T07:08:27;23.50;93.60
43987;DHT22;29650;47.378;8.300;2022-07-22T07:10:54;23.60;93.40
43987;DHT22;29650;47.378;8.300;2022-07-22T07:13:21;23.30;93.50
43987;DHT22;29650;47.378;8.300;2022-07-22T07:15:48;23.40;93.50
43987;DHT22;29650;47.378;8.300;2022-07-22T07:18:15;23.40;94.20
43987;DHT22;29650;47.378;8.300;2022-07-22T07:20:42;23.60;93.50
43987;DHT22;29650;47.378;8.300;2022-07-22T07:23:11;23.60;93.50
43987;DHT22;29650;47.378;8.300;2022-07-22T07:25:38;23.90;93.00
43987;DHT22;29650;47.378;8.300;2022-07-22T07:28:05;23.90;92.70
43987;DHT22;29650;47.378;8.300;2022-07-22T07:30:32;24.00;92.50
43987;DHT22;29650;47.378;8.300;2022-07-22T07:32:59;24.10;91.80
43987;DHT22;29650;47.378;8.300;2022-07-22T07:35:27;24.00;91.60
43987;DHT22;29650;47.378;8.300;2022-07-22T07:37:54;24.20;91.70
43987;DHT22;29650;47.378;8.300;2022-07-22T07:40:22;24.40;91.60
43987;DHT22;29650;47.378;8.300;2022-07-22T07:42:49;24.40;91.40
43987;DHT22;29650;47.378;8.300;2022-07-22T07:45:16;24.70;91.30
43987;DHT22;29650;47.378;8.300;2022-07-22T07:47:43;24.60;91.20
43987;DHT22;29650;47.378;8.300;2022-07-22T07:50:11;24.40;91.30
43987;DHT22;29650;47.378;8.300;2022-07-22T07:52:38;24.50;91.40
43987;DHT22;29650;47.378;8.300;2022-07-22T07:55:06;24.60;91.60
43987;DHT22;29650;47.378;8.300;2022-07-22T07:57:35;24.80;91.40
43987;DHT22;29650;47.378;8.300;2022-07-22T08:00:06;24.90;91.10
43987;DHT22;29650;47.378;8.300;2022-07-22T08:02:33;25.10;90.90
43987;DHT22;29650;47.378;8.300;2022-07-22T08:05:00;25.10;91.10
43987;DHT22;29650;47.378;8.300;2022-07-22T08:07:28;25.10;91.00
43987;DHT22;29650;47.378;8.300;2022-07-22T08:09:55;25.20;90.80
43987;DHT22;29650;47.378;8.300;2022-07-22T08:12:22;25.40;90.50
43987;DHT22;29650;47.378;8.300;2022-07-22T08:14:50;25.50;88.60
43987;DHT22;29650;47.378;8.300;2022-07-22T08:17:17;25.60;89.60
43987;DHT22;29650;47.378;8.300;2022-07-22T08:19:44;25.70;87.80
43987;DHT22;29650;47.378;8.300;2022-07-22T08:22:11;25.60;87.20
43987;DHT22;29650;47.378;8.300;2022-07-22T08:24:38;25.60;87.20
43987;DHT22;29650;47.378;8.300;2022-07-22T08:27:05;25.90;87.10
43987;DHT22;29650;47.378;8.300;2022-07-22T08:29:32;25.90;87.60
43987;DHT22;29650;47.378;8.300;2022-07-22T08:32:00;26.00;87.00
43987;DHT22;29650;47.378;8.300;2022-07-22T08:34:27;25.90;86.50
43987;DHT22;29650;47.378;8.300;2022-07-22T08:36:54;26.20;86.80
43987;DHT22;29650;47.378;8.300;2022-07-22T08:39:21;26.20;85.10
43987;DHT22;29650;47.378;8.300;2022-07-22T08:41:49;26.00;85.70
43987;DHT22;29650;47.378;8.300;2022-07-22T08:44:16;26.10;85.20
43987;DHT22;29650;47.378;8.300;2022-07-22T08:46:43;26.10;84.60
43987;DHT22;29650;47.378;8.300;2022-07-22T08:49:14;26.20;84.70
43987;DHT22;29650;47.378;8.300;2022-07-22T08:51:41;26.40;83.60
43987;DHT22;29650;47.378;8.300;2022-07-22T08:54:08;26.50;83.10
43987;DHT22;29650;47.378;8.300;2022-07-22T08:56:35;26.40;83.20
43987;DHT22;29650;47.378;8.300;2022-07-22T08:59:03;26.40;83.30
43987;DHT22;29650;47.378;8.300;2022-07-22T09:01:30;26.60;82.20
43987;DHT22;29650;47.378;8.300;2022-07-22T09:03:57;26.30;82.40
43987;DHT22;29650;47.378;8.300;2022-07-22T09:06:27;26.60;82.60
43987;DHT22;29650;47.378;8.300;2022-07-22T09:09:00;26.70;82.70
43987;DHT22;29650;47.378;8.300;2022-07-22T09:11:29;26.90;81.90
43987;DHT22;29650;47.378;8.300;2022-07-22T09:13:57;26.70;82.00
43987;DHT22;29650;47.378;8.300;2022-07-22T09:16:43;27.20;83.20
43987;DHT22;29650;47.378;8.300;2022-07-22T09:19:11;27.40;82.10
43987;DHT22;29650;47.378;8.300;2022-07-22T09:21:41;27.20;79.80
43987;DHT22;29650;47.378;8.300;2022-07-22T09:24:08;27.20;79.80
43987;DHT22;29650;47.378;8.300;2022-07-22T09:26:36;27.00;79.30
43987;DHT22;29650;47.378;8.300;2022-07-22T09:29:05;27.20;79.20
43987;DHT22;29650;47.378;8.300;2022-07-22T09:31:33;27.40;78.80
43987;DHT22;29650;47.378;8.300;2022-07-22T09:34:00;27.60;78.50
43987;DHT22;29650;47.378;8.300;2022-07-22T09:36:28;27.50;77.70
43987;DHT22;29650;47.378;8.300;2022-07-22T09:38:57;27.80;78.60
43987;DHT22;29650;47.378;8.300;2022-07-22T09:41:24;28.10;77.60
43987;DHT22;29650;47.378;8.300;2022-07-22T09:43:51;28.10;77.10
43987;DHT22;29650;47.378;8.300;2022-07-22T09:46:34;28.00;76.50
43987;DHT22;29650;47.378;8.300;2022-07-22T09:49:01;27.70;76.20
43987;DHT22;29650;47.378;8.300;2022-07-22T09:51:29;27.60;76.90
43987;DHT22;29650;47.378;8.300;2022-07-22T09:53:58;27.90;76.20
43987;DHT22;29650;47.378;8.300;2022-07-22T09:56:25;28.20;76.20
43987;DHT22;29650;47.378;8.300;2022-07-22T09:58:55;28.40;76.30
43987;DHT22;29650;47.378;8.300;2022-07-22T10:01:22;28.80;77.90
43987;DHT22;29650;47.378;8.300;2022-07-22T10:03:51;28.90;76.60
43987;DHT22;29650;47.378;8.300;2022-07-22T10:06:20;28.90;76.50
43987;DHT22;29650;47.378;8.300;2022-07-22T10:08:48;29.00;74.10
43987;DHT22;29650;47.378;8.300;2022-07-22T10:11:18;28.60;73.30
43987;DHT22;29650;47.378;8.300;2022-07-22T10:13:45;28.50;74.00
43987;DHT22;29650;47.378;8.300;2022-07-22T10:16:13;28.50;73.80
43987;DHT22;29650;47.378;8.300;2022-07-22T10:18:44;28.70;73.50
43987;DHT22;29650;47.378;8.300;2022-07-22T10:21:12;28.50;73.00
43987;DHT22;29650;47.378;8.300;2022-07-22T10:24:09;28.60;73.40
43987;DHT22;29650;47.378;8.300;2022-07-22T10:26:48;28.90;72.50
43987;DHT22;29650;47.378;8.300;2022-07-22T10:29:29;29.30;72.60
43987;DHT22;29650;47.378;8.300;2022-07-22T10:32:24;29.50;72.60
43987;DHT22;29650;47.378;8.300;2022-07-22T10:35:23;29.80;72.60
43987;DHT22;29650;47.378;8.300;2022-07-22T10:38:05;29.70;71.40
43987;DHT22;29650;47.378;8.300;2022-07-22T10:40:46;29.50;69.00
43987;DHT22;29650;47.378;8.300;2022-07-22T10:43:15;29.40;68.50
43987;DHT22;29650;47.378;8.300;2022-07-22T10:45:44;29.90;71.70
43987;DHT22;29650;47.378;8.300;2022-07-22T10:48:14;30.20;72.00
43987;DHT22;29650;47.378;8.300;2022-07-22T10:51:06;30.20;71.70
43987;DHT22;29650;47.378;8.300;2022-07-22T10:53:44;30.00;69.00
43987;DHT22;29650;47.378;8.300;2022-07-22T10:56:20;30.40;70.30
43987;DHT22;29650;47.378;8.300;2022-07-22T10:58:51;30.50;69.60
43987;DHT22;29650;47.378;8.300;2022-07-22T11:01:21;30.70;70.00
43987;DHT22;29650;47.378;8.300;2022-07-22T11:03:49;31.00;68.10
43987;DHT22;29650;47.378;8.300;2022-07-22T11:06:18;30.80;66.30
43987;DHT22;29650;47.378;8.300;2022-07-22T11:08:47;30.80;67.20
43987;DHT22;29650;47.378;8.300;2022-07-22T11:11:14;30.60;65.40
43987;DHT22;29650;47.378;8.300;2022-07-22T11:13:42;30.40;64.80
43987;DHT22;29650;47.378;8.300;2022-07-22T11:16:16;30.40;64.20
43987;DHT22;29650;47.378;8.300;2022-07-22T11:18:49;30.20;65.00
43987;DHT22;29650;47.378;8.300;2022-07-22T11:21:18;30.70;64.70
43987;DHT22;29650;47.378;8.300;2022-07-22T11:23:48;31.10;64.70
43987;DHT22;29650;47.378;8.300;2022-07-22T11:26:17;31.20;64.20
43987;DHT22;29650;47.378;8.300;2022-07-22T11:28:45;31.10;63.70
43987;DHT22;29650;47.378;8.300;2022-07-22T11:31:16;30.50;63.10
43987;DHT22;29650;47.378;8.300;2022-07-22T11:33:44;31.00;63.30
43987;DHT22;29650;47.378;8.300;2022-07-22T11:36:11;31.10;61.50
43987;DHT22;29650;47.378;8.300;2022-07-22T11:38:47;30.70;59.80
43987;DHT22;29650;47.378;8.300;2022-07-22T11:41:16;30.80;59.70
43987;DHT22;29650;47.378;8.300;2022-07-22T11:43:44;31.10;60.70
43987;DHT22;29650;47.378;8.300;2022-07-22T11:46:12;30.90;60.30
43987;DHT22;29650;47.378;8.300;2022-07-22T11:48:41;31.00;60.20
43987;DHT22;29650;47.378;8.300;2022-07-22T11:51:10;31.60;62.50
43987;DHT22;29650;47.378;8.300;2022-07-22T11:53:37;31.80;59.50
43987;DHT22;29650;47.378;8.300;2022-07-22T11:56:06;31.80;60.50
43987;DHT22;29650;47.378;8.300;2022-07-22T11:58:35;31.80;59.30
43987;DHT22;29650;47.378;8.300;2022-07-22T12:01:03;32.10;60.70
43987;DHT22;29650;47.378;8.300;2022-07-22T12:03:31;32.10;59.60
43987;DHT22;29650;47.378;8.300;2022-07-22T12:06:00;32.10;58.40
43987;DHT22;29650;47.378;8.300;2022-07-22T12:08:28;32.20;60.00
43987;DHT22;29650;47.378;8.300;2022-07-22T12:10:55;32.00;58.90
43987;DHT22;29650;47.378;8.300;2022-07-22T12:13:28;31.90;59.20
43987;DHT22;29650;47.378;8.300;2022-07-22T12:15:55;32.20;58.20
43987;DHT22;29650;47.378;8.300;2022-07-22T12:18:24;32.30;57.90
43987;DHT22;29650;47.378;8.300;2022-07-22T12:20:52;32.40;57.80
43987;DHT22;29650;47.378;8.300;2022-07-22T12:23:22;32.60;57.90
43987;DHT22;29650;47.378;8.300;2022-07-22T12:25:49;32.30;56.50
43987;DHT22;29650;47.378;8.300;2022-07-22T12:28:16;32.60;57.20
43987;DHT22;29650;47.378;8.300;2022-07-22T12:30:43;32.50;56.90
43987;DHT22;29650;47.378;8.300;2022-07-22T12:33:13;32.80;57.50
43987;DHT22;29650;47.378;8.300;2022-07-22T12:35:40;32.80;57.30
43987;DHT22;29650;47.378;8.300;2022-07-22T12:38:09;32.80;57.50
43987;DHT22;29650;47.378;8.300;2022-07-22T12:40:37;32.90;57.00
43987;DHT22;29650;47.378;8.300;2022-07-22T12:43:07;33.00;57.60
43987;DHT22;29650;47.378;8.300;2022-07-22T12:45:36;33.30;57.90
43987;DHT22;29650;47.378;8.300;2022-07-22T12:48:06;33.40;56.80
43987;DHT22;29650;47.378;8.300;2022-07-22T12:50:36;33.50;55.80
43987;DHT22;29650;47.378;8.300;2022-07-22T12:53:04;33.40;55.80
43987;DHT22;29650;47.378;8.300;2022-07-22T12:55:33;33.40;55.00
43987;DHT22;29650;47.378;8.300;2022-07-22T12:58:03;33.60;55.00
43987;DHT22;29650;47.378;8.300;2022-07-22T13:00:32;33.50;53.90
43987;DHT22;29650;47.378;8.300;2022-07-22T13:02:59;33.70;54.20
43987;DHT22;29650;47.378;8.300;2022-07-22T13:05:26;33.50;54.10
43987;DHT22;29650;47.378;8.300;2022-07-22T13:07:54;33.60;54.40
43987;DHT22;29650;47.378;8.300;2022-07-22T13:10:21;33.80;54.80
43987;DHT22;29650;47.378;8.300;2022-07-22T13:12:49;33.40;53.00
43987;DHT22;29650;47.378;8.300;2022-07-22T13:15:18;32.70;52.50
43987;DHT22;29650;47.378;8.300;2022-07-22T13:17:47;33.10;52.40
43987;DHT22;29650;47.378;8.300;2022-07-22T13:20:15;33.10;52.00
43987;DHT22;29650;47.378;8.300;2022-07-22T13:22:43;33.40;52.90
43987;DHT22;29650;47.378;8.300;2022-07-22T13:25:11;33.70;49.50
43987;DHT22;29650;47.378;8.300;2022-07-22T13:27:38;33.20;48.00
43987;DHT22;29650;47.378;8.300;2022-07-22T13:30:06;33.10;47.70
43987;DHT22;29650;47.378;8.300;2022-07-22T13:32:34;32.70;48.50
43987;DHT22;29650;47.378;8.300;2022-07-22T13:35:01;32.90;48.40
43987;DHT22;29650;47.378;8.300;2022-07-22T13:37:28;33.60;49.50
43987;DHT22;29650;47.378;8.300;2022-07-22T13:39:55;33.60;48.70
43987;DHT22;29650;47.378;8.300;2022-07-22T13:42:22;33.40;48.50
43987;DHT22;29650;47.378;8.300;2022-07-22T13:44:50;33.40;47.30
43987;DHT22;29650;47.378;8.300;2022-07-22T13:47:17;34.10;47.60
43987;DHT22;29650;47.378;8.300;2022-07-22T13:49:45;34.10;47.10
43987;DHT22;29650;47.378;8.300;2022-07-22T13:52:15;34.40;47.40
43987;DHT22;29650;47.378;8.300;2022-07-22T13:54:42;34.20;46.80
43987;DHT22;29650;47.378;8.300;2022-07-22T13:57:09;34.00;44.70
43987;DHT22;29650;47.378;8.300;2022-07-22T13:59:37;34.00;44.40
43987;DHT22;29650;47.378;8.300;2022-07-22T14:02:04;34.10;45.00
43987;DHT22;29650;47.378;8.300;2022-07-22T14:04:31;33.60;45.90
43987;DHT22;29650;47.378;8.300;2022-07-22T14:07:00;33.40;46.10
43987;DHT22;29650;47.378;8.300;2022-07-22T14:09:26;33.10;45.00
43987;DHT22;29650;47.378;8.300;2022-07-22T14:11:55;33.80;45.50
43987;DHT22;29650;47.378;8.300;2022-07-22T14:14:24;33.70;44.40
43987;DHT22;29650;47.378;8.300;2022-07-22T14:16:51;33.60;44.80
43987;DHT22;29650;47.378;8.300;2022-07-22T14:19:18;33.50;44.90
43987;DHT22;29650;47.378;8.300;2022-07-22T14:21:45;33.60;45.70
43987;DHT22;29650;47.378;8.300;2022-07-22T14:24:14;33.80;46.00
43987;DHT22;29650;47.378;8.300;2022-07-22T14:26:41;34.20;44.30
43987;DHT22;29650;47.378;8.300;2022-07-22T14:29:08;34.00;43.60
43987;DHT22;29650;47.378;8.300;2022-07-22T14:31:36;33.90;44.00
43987;DHT22;29650;47.378;8.300;2022-07-22T14:34:03;34.30;45.20
43987;DHT22;29650;47.378;8.300;2022-07-22T14:36:30;34.40;44.90
43987;DHT22;29650;47.378;8.300;2022-07-22T14:38:57;34.50;43.00
43987;DHT22;29650;47.378;8.300;2022-07-22T14:41:25;34.10;42.20
43987;DHT22;29650;47.378;8.300;2022-07-22T14:43:52;34.20;42.80
43987;DHT22;29650;47.378;8.300;2022-07-22T14:46:19;33.80;43.70
43987;DHT22;29650;47.378;8.300;2022-07-22T14:48:46;34.20;44.00
43987;DHT22;29650;47.378;8.300;2022-07-22T14:51:18;34.40;43.40
43987;DHT22;29650;47.378;8.300;2022-07-22T14:53:45;34.40;43.10
43987;DHT22;29650;47.378;8.300;2022-07-22T14:56:12;33.90;42.70
43987;DHT22;29650;47.378;8.300;2022-07-22T14:58:40;34.30;43.40
43987;DHT22;29650;47.378;8.300;2022-07-22T15:01:07;34.40;43.50
43987;DHT22;29650;47.378;8.300;2022-07-22T15:03:35;34.90;43.30
43987;DHT22;29650;47.378;8.300;2022-07-22T15:06:02;34.40;42.80
43987;DHT22;29650;47.378;8.300;2022-07-22T15:08:29;33.70;42.60
43987;DHT22;29650;47.378;8.300;2022-07-22T15:10:56;33.80;43.60
43987;DHT22;29650;47.378;8.300;2022-07-22T15:13:24;34.10;41.40
43987;DHT22;29650;47.378;8.300;2022-07-22T15:15:53;34.70;41.40
43987;DHT22;29650;47.378;8.300;2022-07-22T15:18:20;34.90;41.70
43987;DHT22;29650;47.378;8.300;2022-07-22T15:20:47;35.30;42.90
43987;DHT22;29650;47.378;8.300;2022-07-22T15:23:14;34.70;41.80
43987;DHT22;29650;47.378;8.300;2022-07-22T15:25:41;34.50;43.10
43987;DHT22;29650;47.378;8.300;2022-07-22T15:28:08;34.20;43.60
43987;DHT22;29650;47.378;8.300;2022-07-22T15:30:35;34.10;43.40
43987;DHT22;29650;47.378;8.300;2022-07-22T15:33:03;34.20;43.50
43987;DHT22;29650;47.378;8.300;2022-07-22T15:35:30;34.70;43.00